Time;durP1;ratioP1;P1;durP2;ratioP2;P2;SDS_P1;SDS_P2;PMS_P1;PMS_P2;Temp;Humidity;BMP_temperature;BMP_pressure;BME280_temperature;BME280_humidity;BME280_pressure;Samples;Min_cycle;Max_cycle;Signal;HPM_P1;HPM_P2
2022/04/02 00:00:19;;;;;;;49.10;36.33;;;11.00;99.90;;;;;;5057966;28;20052;-75
2022/04/02 00:02:46;;;;;;;44.90;32.92;;;11.00;99.90;;;;;;5058358;28;20136;-74
2022/04/02 00:05:16;;;;;;;50.47;35.08;;;10.90;99.90;;;;;;5076470;28;20059;-74
2022/04/02 00:07:44;;;;;;;46.58;34.55;;;10.90;99.90;;;;;;5058809;28;20055;-73
2022/04/02 00:10:12;;;;;;;49.42;35.55;;;10.80;99.90;;;;;;5077130;28;20048;-74
2022/04/02 00:12:39;;;;;;;48.13;35.40;;;10.90;99.90;;;;;;5059317;28;20040;-76
2022/04/02 00:15:07;;;;;;;48.53;36.72;;;10.90;99.90;;;;;;5058079;28;20056;-74
2022/04/02 00:17:35;;;;;;;48.20;34.17;;;10.90;99.90;;;;;;5076185;28;20048;-76
2022/04/02 00:20:04;;;;;;;42.42;31.77;;;10.90;99.90;;;;;;5076446;28;20106;-75
2022/04/02 00:22:33;;;;;;;40.38;30.10;;;10.90;99.90;;;;;;5075899;28;20072;-76
2022/04/02 00:25:00;;;;;;;52.90;38.70;;;10.80;99.90;;;;;;5057934;28;20056;-75
2022/04/02 00:27:28;;;;;;;47.80;32.03;;;10.80;99.90;;;;;;5057483;28;20048;-74
2022/04/02 00:29:56;;;;;;;44.08;31.77;;;10.80;99.90;;;;;;5075747;28;20055;-74
2022/04/02 00:32:23;;;;;;;44.03;30.85;;;10.80;99.90;;;;;;5075076;28;20075;-75
2022/04/02 00:34:50;;;;;;;35.97;26.23;;;10.70;99.90;;;;;;5057762;28;20059;-74
2022/04/02 00:37:18;;;;;;;43.72;25.08;;;10.70;99.90;;;;;;5076392;28;20103;-74
2022/04/02 00:39:47;;;;;;;31.10;23.17;;;10.80;99.90;;;;;;5082422;28;20127;-75
2022/04/02 00:42:15;;;;;;;28.73;22.85;;;10.70;99.90;;;;;;5082712;28;20507;-75
2022/04/02 00:44:43;;;;;;;30.02;22.63;;;10.70;99.90;;;;;;5097798;28;20454;-75
2022/04/02 00:47:11;;;;;;;33.08;24.92;;;10.70;99.90;;;;;;5076123;28;20036;-75
2022/04/02 00:49:38;;;;;;;33.25;25.70;;;10.60;99.90;;;;;;5075739;28;20052;-75
2022/04/02 00:52:06;;;;;;;45.75;33.75;;;10.50;99.90;;;;;;5057237;28;20068;-74
2022/04/02 00:54:34;;;;;;;41.10;31.60;;;10.50;99.90;;;;;;5075654;28;20055;-73
2022/04/02 00:57:04;;;;;;;43.85;31.98;;;10.50;99.90;;;;;;5063090;28;20048;-74
2022/04/02 00:59:31;;;;;;;42.75;30.73;;;10.60;99.90;;;;;;5067529;28;20055;-75
2022/04/02 01:01:59;;;;;;;43.63;30.65;;;10.60;99.90;;;;;;5063253;28;20447;-76
2022/04/02 01:04:27;;;;;;;36.35;28.95;;;10.60;99.90;;;;;;5074908;28;20076;-75
2022/04/02 01:06:55;;;;;;;36.85;27.15;;;10.60;99.90;;;;;;5057293;28;20059;-76
2022/04/02 01:09:23;;;;;;;35.78;26.67;;;10.60;99.90;;;;;;5057572;28;20402;-75
2022/04/02 01:11:54;;;;;;;34.65;25.63;;;10.60;99.90;;;;;;5057379;28;20066;-75
2022/04/02 01:14:24;;;;;;;35.45;25.77;;;10.70;99.90;;;;;;5057000;28;20052;-75
2022/04/02 01:16:56;;;;;;;28.65;23.15;;;10.60;99.90;;;;;;5057231;28;20049;-75
2022/04/02 01:19:26;;;;;;;29.98;23.08;;;10.60;99.90;;;;;;5057373;28;20044;-75
2022/04/02 01:22:16;;;;;;;32.50;24.23;;;10.60;99.90;;;;;;5054285;28;20114;-74
2022/04/02 01:24:51;;;;;;;32.40;24.25;;;10.70;99.90;;;;;;5038177;28;20531;-76
2022/04/02 01:27:20;;;;;;;32.45;22.25;;;10.70;99.90;;;;;;5038339;28;20056;-74
2022/04/02 01:29:54;;;;;;;26.67;21.33;;;10.70;99.90;;;;;;5070900;28;20045;-75
2022/04/02 01:32:22;;;;;;;27.35;21.25;;;10.70;99.90;;;;;;5055012;28;20518;-75
2022/04/02 01:34:58;;;;;;;;;;;10.80;99.90;;;;;;5044428;28;20136;-75
2022/04/02 01:37:27;;;;;;;27.40;21.00;;;10.80;99.90;;;;;;5090450;28;19920;-75
2022/04/02 01:39:59;;;;;;;35.83;25.15;;;10.80;99.90;;;;;;5056495;28;20072;-76
2022/04/02 01:42:38;;;;;;;34.80;25.80;;;10.90;99.90;;;;;;5089273;28;20048;-74
2022/04/02 01:45:10;;;;;;;34.47;27.35;;;10.90;99.90;;;;;;5057778;28;20075;-75
2022/04/02 01:47:46;;;;;;;34.50;26.88;;;11.00;99.90;;;;;;5060622;28;20060;-76
2022/04/02 01:50:13;;;;;;;34.13;25.95;;;11.00;99.90;;;;;;5059320;28;20068;-75
2022/04/02 01:52:47;;;;;;;33.80;26.67;;;11.00;99.90;;;;;;5057087;28;20037;-75
2022/04/02 01:55:19;;;;;;;29.33;24.08;;;11.10;99.90;;;;;;5056231;28;20503;-76
2022/04/02 01:57:52;;;;;;;32.50;22.95;;;11.00;99.90;;;;;;5089746;28;20458;-76
2022/04/02 02:00:29;;;;;;;31.98;22.73;;;11.00;99.90;;;;;;5056049;28;20041;-76
2022/04/02 02:02:57;;;;;;;31.25;22.88;;;11.00;99.90;;;;;;5089434;28;20106;-76
2022/04/02 02:05:26;;;;;;;30.00;22.10;;;11.00;99.90;;;;;;5055565;28;20052;-74
2022/04/02 02:07:56;;;;;;;33.13;22.77;;;10.90;99.90;;;;;;5056260;28;20055;-76
2022/04/02 02:10:39;;;;;;;31.80;22.30;;;10.80;99.90;;;;;;5055965;28;20040;-75
2022/04/02 02:13:23;;;;;;;34.95;22.05;;;10.80;99.90;;;;;;5055946;28;20064;-75
2022/04/02 02:15:51;;;;;;;32.88;20.75;;;10.80;99.90;;;;;;5055653;28;20068;-74
2022/04/02 02:18:19;;;;;;;31.75;20.38;;;10.80;99.90;;;;;;5073778;28;20066;-75
2022/04/02 02:20:46;;;;;;;29.88;19.30;;;10.80;99.90;;;;;;5055175;28;20051;-74
2022/04/02 02:23:15;;;;;;;32.45;19.15;;;10.70;99.90;;;;;;5055436;28;20136;-75
2022/04/02 02:25:43;;;;;;;36.25;22.38;;;10.60;99.90;;;;;;5056179;28;20569;-74
2022/04/02 02:28:10;;;;;;;38.67;21.55;;;10.50;99.90;;;;;;5056346;28;20052;-76
2022/04/02 02:30:37;;;;;;;37.33;22.35;;;10.60;99.90;;;;;;5074725;28;20076;-74
2022/04/02 02:35:54;;;;;;;37.83;23.47;;;10.50;99.90;;;;;;5055689;28;20510;-76
2022/04/02 02:38:35;;;;;;;35.95;23.83;;;10.40;99.90;;;;;;5055288;28;20580;-75
2022/04/02 02:41:28;;;;;;;38.30;22.65;;;10.40;99.90;;;;;;5070838;28;20492;-75
2022/04/02 02:44:02;;;;;;;39.97;23.33;;;10.30;99.90;;;;;;5088969;28;20052;-75
2022/04/02 02:46:41;;;;;;;37.05;22.77;;;10.30;99.90;;;;;;5055634;28;20135;-75
2022/04/02 02:49:19;;;;;;;33.63;22.52;;;10.30;99.90;;;;;;5055840;28;20134;-76
2022/04/02 02:51:51;;;;;;;43.47;24.13;;;10.30;99.90;;;;;;5073793;28;20048;-74
2022/04/02 02:54:25;;;;;;;36.35;22.40;;;10.40;99.90;;;;;;5055689;28;20044;-74
2022/04/02 02:56:55;;;;;;;37.67;24.17;;;10.30;99.90;;;;;;5055937;28;20048;-75
2022/04/02 02:59:22;;;;;;;36.22;23.30;;;10.30;99.90;;;;;;5055312;28;20059;-76
2022/04/02 03:01:50;;;;;;;43.20;28.02;;;10.30;99.90;;;;;;5055465;28;20106;-74
2022/04/02 03:04:21;;;;;;;43.50;29.10;;;10.40;99.90;;;;;;5054921;28;20084;-74
2022/04/02 03:06:50;;;;;;;42.60;27.65;;;10.30;99.90;;;;;;5088796;28;20048;-74
2022/04/02 03:09:20;;;;;;;35.38;23.45;;;10.30;99.90;;;;;;5089244;28;20044;-74
2022/04/02 03:11:50;;;;;;;37.15;22.40;;;10.30;99.90;;;;;;5089006;28;20369;-74
2022/04/02 03:14:19;;;;;;;40.90;24.67;;;10.30;99.90;;;;;;5055216;28;20076;-74
2022/04/02 03:16:46;;;;;;;40.30;25.88;;;10.30;99.90;;;;;;5055332;28;20059;-74
2022/04/02 03:19:17;;;;;;;45.03;27.42;;;10.30;99.90;;;;;;5055373;28;20040;-75
2022/04/02 03:21:45;;;;;;;47.33;30.25;;;10.20;99.90;;;;;;5054807;28;20078;-74
2022/04/02 03:24:14;;;;;;;48.75;30.88;;;10.20;99.90;;;;;;5054929;28;20131;-74
2022/04/02 03:26:41;;;;;;;47.22;33.15;;;10.20;99.90;;;;;;5055187;28;20056;-74
2022/04/02 03:29:18;;;;;;;54.15;35.22;;;10.10;99.90;;;;;;5055238;28;20106;-74
2022/04/02 03:31:47;;;;;;;42.13;28.17;;;10.10;99.90;;;;;;5054915;28;20055;-74
2022/04/02 03:34:16;;;;;;;38.65;26.33;;;10.10;99.90;;;;;;5054702;28;20055;-74
2022/04/02 03:36:46;;;;;;;43.20;26.75;;;10.10;99.90;;;;;;5088668;28;20140;-75
2022/04/02 03:39:13;;;;;;;45.22;27.52;;;10.10;99.90;;;;;;5072604;28;20135;-75
2022/04/02 03:41:42;;;;;;;42.88;25.10;;;10.10;99.90;;;;;;5051511;28;20393;-75
2022/04/02 03:44:10;;;;;;;47.92;25.63;;;10.00;99.90;;;;;;5051839;28;20049;-76
2022/04/02 03:49:35;;;;;;;47.90;27.95;;;10.00;99.90;;;;;;5051318;28;20045;-74
2022/04/02 03:52:04;;;;;;;54.08;29.85;;;10.00;99.90;;;;;;5051487;28;20069;-75
2022/04/02 03:54:35;;;;;;;67.85;39.38;;;10.00;99.90;;;;;;5051616;28;20401;-75
2022/04/02 03:57:03;;;;;;;54.25;32.40;;;10.10;99.90;;;;;;5051539;28;20073;-74
2022/04/02 03:59:31;;;;;;;43.92;28.00;;;10.10;99.90;;;;;;5051367;28;20057;-75
2022/04/02 04:02:01;;;;;;;60.78;38.28;;;10.10;99.90;;;;;;5050864;28;20136;-74
2022/04/02 04:04:29;;;;;;;52.45;29.40;;;10.10;99.90;;;;;;5052260;28;20507;-75
2022/04/02 04:06:59;;;;;;;48.25;26.13;;;10.00;99.90;;;;;;5054841;28;20064;-75
2022/04/02 04:09:28;;;;;;;43.38;25.85;;;10.10;99.90;;;;;;5055197;28;20075;-76
2022/04/02 04:11:56;;;;;;;42.20;26.23;;;10.10;99.90;;;;;;5054914;28;20037;-75
2022/04/02 04:14:28;;;;;;;41.95;23.92;;;10.20;99.90;;;;;;5055070;28;20049;-74
2022/04/02 04:16:56;;;;;;;41.42;24.35;;;10.30;99.90;;;;;;5056601;28;20064;-76
2022/04/02 04:19:26;;;;;;;38.20;23.02;;;10.30;99.90;;;;;;5055284;28;20052;-74
2022/04/02 04:21:55;;;;;;;38.58;22.30;;;10.30;99.90;;;;;;5035130;28;20041;-73
2022/04/02 04:24:24;;;;;;;38.88;22.58;;;10.30;99.90;;;;;;5034682;28;20080;-75
2022/04/02 04:26:53;;;;;;;35.83;22.30;;;10.20;99.90;;;;;;5034773;28;20049;-74
2022/04/02 04:29:22;;;;;;;39.50;23.15;;;10.20;99.90;;;;;;5034835;28;20429;-75
2022/04/02 04:31:50;;;;;;;34.50;21.63;;;10.20;99.90;;;;;;5045653;28;20045;-74
2022/04/02 04:34:17;;;;;;;39.05;23.25;;;10.20;99.90;;;;;;5055382;28;20053;-74
2022/04/02 04:36:46;;;;;;;39.30;23.95;;;10.20;99.90;;;;;;5054668;28;20048;-75
2022/04/02 04:39:15;;;;;;;41.53;24.63;;;10.30;99.90;;;;;;5054347;28;20055;-76
2022/04/02 04:41:44;;;;;;;38.90;23.70;;;10.40;99.90;;;;;;5053462;28;20053;-75
2022/04/02 04:44:13;;;;;;;41.58;25.35;;;10.40;99.90;;;;;;5054324;28;20393;-75
2022/04/02 04:46:43;;;;;;;40.28;24.85;;;10.50;99.90;;;;;;5054674;28;20114;-75
2022/04/02 04:49:13;;;;;;;42.97;26.83;;;10.50;99.90;;;;;;5054209;28;20055;-75
2022/04/02 04:51:46;;;;;;;42.60;24.48;;;10.60;99.90;;;;;;5054184;28;20037;-75
2022/04/02 04:54:13;;;;;;;38.15;23.48;;;10.50;99.90;;;;;;5059632;28;20053;-75
2022/04/02 04:56:44;;;;;;;34.20;21.77;;;10.50;99.90;;;;;;5079188;28;20126;-75
2022/04/02 04:59:16;;;;;;;33.58;21.05;;;10.50;99.90;;;;;;5077159;28;20053;-74
2022/04/02 05:01:47;;;;;;;30.55;17.15;;;10.60;99.90;;;;;;5060077;28;20049;-75
2022/04/02 05:04:15;;;;;;;24.02;16.42;;;10.50;99.90;;;;;;5059156;28;20045;-76
2022/04/02 05:06:49;;;;;;;23.48;16.13;;;10.60;99.90;;;;;;5058673;28;20140;-74
2022/04/02 05:09:18;;;;;;;22.77;15.07;;;10.60;99.90;;;;;;5058425;28;20503;-75
2022/04/02 05:11:48;;;;;;;17.15;12.20;;;10.60;99.90;;;;;;5068630;28;20111;-75
2022/04/02 05:14:18;;;;;;;20.42;13.15;;;10.50;99.90;;;;;;5054358;28;20451;-75
2022/04/02 05:16:51;;;;;;;18.90;13.32;;;10.30;99.90;;;;;;5056293;28;20117;-76
2022/04/02 05:19:20;;;;;;;18.35;12.27;;;10.40;99.90;;;;;;5057784;28;20091;-75
2022/04/02 05:21:51;;;;;;;18.05;13.20;;;10.50;99.90;;;;;;5058439;28;20099;-75
2022/04/02 05:24:19;;;;;;;16.15;12.05;;;10.60;99.90;;;;;;5059236;28;20052;-74
2022/04/02 05:26:51;;;;;;;16.92;11.57;;;10.60;99.90;;;;;;5062035;28;20064;-75
2022/04/02 05:29:20;;;;;;;17.30;12.55;;;10.80;99.90;;;;;;5063772;28;20045;-76
2022/04/02 05:31:48;;;;;;;17.27;13.27;;;10.70;99.90;;;;;;5058868;28;20048;-76
2022/04/02 05:34:16;;;;;;;14.02;11.80;;;10.80;99.90;;;;;;5066833;28;20037;-74
2022/04/02 05:36:43;;;;;;;13.70;11.10;;;10.80;99.90;;;;;;5066328;28;20051;-75
2022/04/02 05:39:12;;;;;;;15.95;12.48;;;10.90;99.90;;;;;;5066522;28;20075;-75
2022/04/02 05:41:41;;;;;;;15.10;12.23;;;10.80;99.90;;;;;;5066171;28;20072;-74
2022/04/02 05:44:09;;;;;;;18.40;13.52;;;10.80;99.90;;;;;;5064955;28;20049;-74
2022/04/02 05:46:36;;;;;;;16.77;12.75;;;10.80;99.90;;;;;;5061797;28;20119;-74
2022/04/02 05:49:04;;;;;;;15.80;13.18;;;10.80;99.90;;;;;;5067259;28;20059;-75
2022/04/02 05:51:32;;;;;;;16.50;13.18;;;10.80;99.90;;;;;;5053829;28;20055;-73
2022/04/02 05:53:59;;;;;;;16.80;13.10;;;10.80;99.90;;;;;;5065334;28;20449;-75
2022/04/02 05:56:29;;;;;;;18.13;13.98;;;10.80;99.90;;;;;;5070897;28;20048;-74
2022/04/02 05:58:57;;;;;;;15.90;13.27;;;10.80;99.90;;;;;;5053002;28;20059;-73
2022/04/02 06:01:24;;;;;;;17.42;14.50;;;10.90;99.90;;;;;;5053409;28;20083;-77
2022/04/02 06:03:52;;;;;;;16.98;13.88;;;10.90;99.90;;;;;;5054227;28;20076;-75
2022/04/02 06:06:19;;;;;;;21.05;14.52;;;10.90;99.90;;;;;;5054171;28;20051;-74
2022/04/02 06:08:47;;;;;;;15.20;13.38;;;10.80;99.90;;;;;;5064123;28;20128;-74
2022/04/02 06:11:15;;;;;;;25.42;15.85;;;10.90;99.90;;;;;;5077049;28;20072;-73
2022/04/02 06:13:44;;;;;;;17.95;14.80;;;11.00;99.90;;;;;;5060276;28;20071;-75
2022/04/02 06:16:11;;;;;;;16.92;14.32;;;11.20;99.90;;;;;;5053681;28;20055;-74
2022/04/02 06:18:38;;;;;;;20.33;15.27;;;11.30;99.90;;;;;;5060055;28;20475;-74
2022/04/02 06:21:06;;;;;;;17.70;15.25;;;11.40;99.90;;;;;;5073194;28;20048;-74
2022/04/02 06:23:34;;;;;;;18.27;14.02;;;11.60;99.90;;;;;;5061545;28;20041;-74
2022/04/02 06:26:01;;;;;;;19.38;15.45;;;12.00;99.90;;;;;;5054588;28;20053;-74
2022/04/02 06:28:29;;;;;;;19.70;16.20;;;11.90;99.90;;;;;;5054652;28;20105;-75
2022/04/02 06:30:58;;;;;;;21.50;16.48;;;12.00;99.90;;;;;;5054238;28;20127;-75
2022/04/02 06:33:32;;;;;;;20.67;15.20;;;12.00;99.90;;;;;;5054923;28;20051;-75
2022/04/02 06:35:59;;;;;;;20.45;14.75;;;11.70;99.90;;;;;;5058864;28;20041;-75
2022/04/02 06:38:27;;;;;;;15.55;12.77;;;11.50;99.90;;;;;;5056118;28;20132;-74
2022/04/02 06:40:55;;;;;;;19.65;15.15;;;11.00;99.90;;;;;;5053100;28;20148;-75
2022/04/02 06:43:22;;;;;;;17.75;14.27;;;10.90;63.30;;;;;;5069140;28;20136;-75
2022/04/02 06:46:04;;;;;;;18.13;14.23;;;10.80;1.00;;;;;;5055760;28;20041;-75
2022/04/02 06:48:31;;;;;;;17.83;14.15;;;10.80;99.90;;;;;;5054958;28;20076;-75
2022/04/02 06:50:59;;;;;;;18.88;14.13;;;10.90;99.90;;;;;;5061868;28;20071;-75
2022/04/02 06:53:26;;;;;;;17.10;14.18;;;10.80;1.00;;;;;;5052682;28;20069;-74
2022/04/02 06:55:54;;;;;;;13.30;10.77;;;10.50;1.00;;;;;;5051991;28;20069;-75
2022/04/02 06:58:29;;;;;;;13.20;10.93;;;10.40;99.90;;;;;;5053582;28;20124;-74
2022/04/02 07:00:56;;;;;;;13.65;11.68;;;10.30;99.90;;;;;;5053031;28;20400;-75
2022/04/02 07:03:25;;;;;;;15.52;13.10;;;10.40;99.90;;;;;;5055501;28;20056;-74
2022/04/02 07:05:53;;;;;;;15.82;13.18;;;10.40;1.00;;;;;;5051610;28;20040;-74
2022/04/02 07:08:20;;;;;;;19.15;14.70;;;10.40;99.90;;;;;;5053025;28;20468;-74
2022/04/02 07:10:48;;;;;;;17.23;14.23;;;10.40;1.00;;;;;;5052837;28;20052;-74
2022/04/02 07:13:16;;;;;;;16.90;14.43;;;10.50;1.00;;;;;;5059179;28;20032;-74
2022/04/02 07:15:43;;;;;;;17.10;13.90;;;10.50;99.90;;;;;;5072255;28;20033;-75
2022/04/02 07:18:11;;;;;;;16.95;13.93;;;10.40;1.00;;;;;;5062420;28;20044;-74
2022/04/02 07:20:41;;;;;;;15.40;12.88;;;10.30;99.90;;;;;;5071800;28;20049;-74
2022/04/02 07:23:10;;;;;;;17.55;14.30;;;10.20;99.90;;;;;;5056147;28;20400;-75
2022/04/02 07:25:39;;;;;;;15.43;12.07;;;10.20;1.00;;;;;;5052980;28;20140;-74
2022/04/02 07:28:07;;;;;;;16.05;13.35;;;10.30;99.90;;;;;;5033561;28;20053;-75
2022/04/02 07:30:36;;;;;;;15.93;12.75;;;10.20;99.90;;;;;;5046269;28;20139;-73
2022/04/02 07:33:04;;;;;;;17.95;13.95;;;10.20;1.00;;;;;;5072182;28;20032;-75
2022/04/02 07:35:40;;;;;;;15.85;13.57;;;10.20;1.00;;;;;;5052638;28;20049;-74
2022/04/02 07:38:17;;;;;;;16.77;13.77;;;10.20;99.90;;;;;;5053674;28;20571;-76
2022/04/02 07:40:55;;;;;;;16.30;13.55;;;10.30;1.00;;;;;;5049905;28;20548;-74
2022/04/02 07:43:36;;;;;;;17.45;14.50;;;10.40;1.00;;;;;;5087286;28;20504;-74
2022/04/02 07:46:08;;;;;;;17.77;14.48;;;10.40;1.00;;;;;;5054357;28;20049;-76
2022/04/02 07:48:38;;;;;;;16.67;13.50;;;10.30;12.80;;;;;;5052851;28;20037;-74
2022/04/02 07:51:11;;;;;;;18.00;14.48;;;10.30;1.00;;;;;;5055909;28;20041;-76
2022/04/02 07:53:44;;;;;;;21.75;14.95;;;10.50;99.90;;;;;;5059547;28;20095;-75
2022/04/02 07:56:16;;;;;;;22.02;15.10;;;10.70;1.00;;;;;;5060512;28;20044;-74
2022/04/02 07:58:47;;;;;;;20.40;15.85;;;10.90;99.90;;;;;;5056711;28;20043;-75
2022/04/02 08:01:19;;;;;;;18.17;15.23;;;11.00;1.00;;;;;;5054882;28;20056;-73
2022/04/02 08:03:48;;;;;;;19.10;15.63;;;11.00;99.90;;;;;;5055354;28;20045;-74
2022/04/02 08:06:20;;;;;;;18.75;15.13;;;11.00;1.00;;;;;;5075334;28;20049;-76
2022/04/02 08:08:49;;;;;;;15.70;12.93;;;11.10;1.00;;;;;;5063952;28;20084;-74
2022/04/02 08:11:18;;;;;;;14.90;11.40;;;11.20;45.80;;;;;;5058930;28;20052;-74
2022/04/02 08:13:47;;;;;;;16.48;12.40;;;11.20;1.00;;;;;;5067501;28;20464;-74
2022/04/02 08:16:16;;;;;;;13.82;11.25;;;11.10;1.00;;;;;;5058685;28;20041;-75
2022/04/02 08:18:46;;;;;;;13.65;11.15;;;11.00;1.00;;;;;;5067663;28;20120;-74
2022/04/02 08:21:19;;;;;;;15.30;12.13;;;10.90;1.00;;;;;;5065292;28;20041;-74
2022/04/02 08:23:48;;;;;;;12.90;11.45;;;10.70;99.90;;;;;;5054682;28;20474;-75
2022/04/02 08:26:38;;;;;;;14.40;11.90;;;10.90;99.90;;;;;;5075120;28;20064;-75
2022/04/02 08:29:26;;;;;;;16.05;13.75;;;10.90;1.00;;;;;;5059424;28;20045;-75
2022/04/02 08:32:15;;;;;;;16.30;13.63;;;11.00;99.90;;;;;;5055979;28;20051;-76
2022/04/02 08:34:58;;;;;;;15.13;12.95;;;11.10;1.00;;;;;;5069002;28;20459;-75
2022/04/02 08:37:30;;;;;;;15.00;12.73;;;11.00;99.90;;;;;;5073812;28;20032;-75
2022/04/02 08:40:19;;;;;;;15.73;12.82;;;11.10;99.90;;;;;;5075159;28;20149;-75
2022/04/02 08:43:30;;;;;;;17.25;13.80;;;11.30;1.00;;;;;;5059174;28;20041;-75
2022/04/02 08:46:04;;;;;;;18.17;14.60;;;11.50;1.00;;;;;;5049774;28;20041;-74
2022/04/02 08:48:36;;;;;;;15.32;13.05;;;11.70;99.90;;;;;;5059068;28;20460;-74
2022/04/02 08:51:14;;;;;;;20.83;16.33;;;12.00;1.00;;;;;;5057676;28;20045;-75
2022/04/02 08:53:52;;;;;;;18.70;14.65;;;12.30;99.90;;;;;;5053412;28;20037;-75
2022/04/02 08:56:24;;;;;;;17.45;13.20;;;12.50;99.90;;;;;;5056246;28;20070;-74
2022/04/02 08:59:04;;;;;;;15.63;13.48;;;13.00;99.90;;;;;;5055986;28;20049;-75
2022/04/02 09:01:41;;;;;;;20.08;13.68;;;13.20;1.00;;;;;;5056017;28;20045;-75
2022/04/02 09:04:45;;;;;;;17.73;15.27;;;13.40;1.00;;;;;;5054893;28;20037;-76
2022/04/02 09:07:46;;;;;;;19.52;15.70;;;13.60;99.90;;;;;;5055396;28;20041;-76
2022/04/02 09:10:53;;;;;;;19.00;16.58;;;14.00;99.90;;;;;;5056914;28;20069;-75
2022/04/02 09:14:03;;;;;;;20.52;16.65;;;14.50;99.90;;;;;;5068622;28;20037;-80
2022/04/02 09:16:37;;;;;;;24.00;18.05;;;14.60;1.00;;;;;;5058570;28;20037;-79
2022/04/02 09:19:14;;;;;;;21.50;17.80;;;15.00;1.00;;;;;;5074213;28;20053;-76
2022/04/02 09:22:09;;;;;;;21.98;18.40;;;14.90;1.00;;;;;;5059788;28;20051;-77
2022/04/02 09:25:08;;;;;;;20.63;16.63;;;15.00;99.90;;;;;;5052821;28;20488;-77
2022/04/02 09:28:12;;;;;;;21.20;17.20;;;14.80;1.00;;;;;;5036349;28;20210;-77
2022/04/02 09:31:05;;;;;;;19.25;15.55;;;14.70;1.00;;;;;;5034356;28;20431;-75
2022/04/02 09:33:58;;;;;;;22.50;17.60;;;14.60;99.90;;;;;;5034299;28;20049;-77
2022/04/02 09:36:31;;;;;;;25.45;18.02;;;14.40;1.00;;;;;;5019590;28;20077;-78
2022/04/02 09:39:05;;;;;;;27.13;19.70;;;14.20;1.00;;;;;;5036150;28;20045;-76
2022/04/02 09:41:57;;;;;;;25.08;18.85;;;14.30;99.90;;;;;;5051940;28;20129;-77
2022/04/02 09:44:49;;;;;;;26.85;19.75;;;14.40;1.00;;;;;;5054239;28;20455;-77
2022/04/02 09:47:21;;;;;;;22.80;18.45;;;14.30;1.00;;;;;;5056046;28;20045;-76
2022/04/02 09:50:06;;;;;;;20.23;14.90;;;14.50;8.90;;;;;;5056096;28;20048;-77
2022/04/02 09:52:36;;;;;;;16.17;12.38;;;14.50;1.00;;;;;;5054962;28;20033;-76
2022/04/02 09:55:10;;;;;;;16.80;12.85;;;14.40;1.00;;;;;;5053699;28;20044;-77
2022/04/02 09:58:10;;;;;;;13.63;10.02;;;14.50;99.90;;;;;;5056214;28;20040;-78
2022/04/02 10:00:42;;;;;;;14.18;10.95;;;14.60;99.90;;;;;;4987069;28;20393;-77
2022/04/02 10:03:18;;;;;;;15.90;12.02;;;14.60;1.00;;;;;;5053285;28;20055;-77
2022/04/02 10:05:55;;;;;;;19.52;13.25;;;14.70;1.00;;;;;;5054366;28;20135;-76
2022/04/02 10:08:28;;;;;;;19.83;12.60;;;15.10;1.00;;;;;;5055701;28;20052;-77
2022/04/02 10:11:01;;;;;;;15.45;11.85;;;15.10;99.90;;;;;;5054971;28;20463;-77
2022/04/02 10:13:32;;;;;;;18.35;13.38;;;14.90;99.90;;;;;;5056770;28;20037;-76
2022/04/02 10:16:01;;;;;;;16.77;12.57;;;15.30;99.90;;;;;;5057605;28;20102;-76
2022/04/02 10:18:35;;;;;;;18.25;13.55;;;15.70;1.00;;;;;;5058474;28;20063;-77
2022/04/02 10:21:05;;;;;;;12.38;10.27;;;15.90;1.00;;;;;;5057421;28;20051;-76
2022/04/02 10:23:37;;;;;;;15.48;11.73;;;15.60;99.90;;;;;;5073824;28;20048;-77
2022/04/02 10:26:15;;;;;;;32.70;23.88;;;15.00;96.00;;;;;;5067117;28;20084;-77
2022/04/02 10:28:49;;;;;;;38.05;23.27;;;13.70;99.90;;;;;;5053159;28;20045;-75
2022/04/02 10:31:33;;;;;;;32.38;16.48;;;12.10;1.00;;;;;;5064258;28;20045;-76
2022/04/02 10:34:11;;;;;;;0.80;0.47;;;10.70;99.90;;;;;;5077977;28;20083;-77
2022/04/02 10:36:45;;;;;;;0.25;0.25;;;9.70;99.90;;;;;;5064570;28;20057;-77
2022/04/02 10:39:16;;;;;;;0.03;0.03;;;9.30;99.90;;;;;;5089630;28;20052;-76
2022/04/02 10:41:45;;;;;;;0.32;0.30;;;9.00;99.90;;;;;;5074400;28;20070;-77
2022/04/02 10:44:21;;;;;;;0.10;0.10;;;8.10;99.90;;;;;;5081924;28;20044;-76
2022/04/02 10:46:53;;;;;;;0.00;0.00;;;7.50;99.90;;;;;;5100673;28;20104;-76
2022/04/02 10:49:33;;;;;;;0.00;0.00;;;7.10;99.90;;;;;;5102867;28;20082;-76
2022/04/02 10:52:03;;;;;;;0.00;0.00;;;7.00;99.90;;;;;;5097308;28;20044;-76
2022/04/02 10:54:31;;;;;;;0.00;0.00;;;7.00;99.90;;;;;;5099776;28;20414;-75
2022/04/02 10:56:59;;;;;;;0.30;0.22;;;6.80;99.90;;;;;;5076222;28;20052;-76
2022/04/02 10:59:31;;;;;;;1.23;0.30;;;6.70;99.90;;;;;;5094319;28;20044;-76
2022/04/02 11:02:01;;;;;;;0.00;0.00;;;6.60;99.90;;;;;;5094617;28;20054;-77
2022/04/02 11:04:41;;;;;;;0.00;0.00;;;6.60;99.90;;;;;;5094229;28;20127;-75
2022/04/02 11:07:08;;;;;;;0.00;0.00;;;6.60;99.90;;;;;;5075533;28;20163;-75
2022/04/02 11:09:39;;;;;;;0.00;0.00;;;6.40;99.90;;;;;;5094126;28;20040;-75
2022/04/02 11:12:09;;;;;;;0.80;0.80;;;6.40;99.90;;;;;;5093855;28;20040;-76
2022/04/02 11:14:42;;;;;;;0.00;0.00;;;6.30;99.90;;;;;;5093836;28;20131;-76
2022/04/02 11:17:10;;;;;;;0.60;0.60;;;6.30;99.90;;;;;;5098098;28;20051;-76
2022/04/02 11:19:56;;;;;;;0.93;0.85;;;6.20;99.90;;;;;;5097865;28;20126;-76
2022/04/02 11:22:28;;;;;;;1.60;1.50;;;6.40;99.90;;;;;;5098273;28;20127;-76
2022/04/02 11:25:06;;;;;;;1.70;1.13;;;6.30;99.90;;;;;;5084857;28;20048;-76
2022/04/02 11:27:37;;;;;;;0.00;0.00;;;6.30;99.90;;;;;;5083141;28;20074;-76
2022/04/02 11:30:08;;;;;;;0.00;0.00;;;6.40;99.90;;;;;;5079585;28;20460;-76
2022/04/02 11:32:44;;;;;;;0.00;0.00;;;6.40;99.90;;;;;;5097969;28;20039;-77
2022/04/02 11:35:16;;;;;;;0.45;0.45;;;6.50;99.90;;;;;;5097982;28;20048;-74
2022/04/02 11:37:56;;;;;;;0.52;0.30;;;6.60;99.90;;;;;;5079401;28;20047;-76
2022/04/02 11:40:27;;;;;;;0.00;0.00;;;6.70;99.90;;;;;;5097175;28;20063;-77
2022/04/02 11:42:56;;;;;;;0.00;0.00;;;6.70;99.90;;;;;;5099085;28;20127;-77
2022/04/02 11:45:24;;;;;;;0.00;0.00;;;6.70;99.90;;;;;;5098217;28;20558;-79
2022/04/02 11:47:55;;;;;;;0.98;0.80;;;7.00;99.90;;;;;;5100013;28;20054;-77
2022/04/02 11:50:29;;;;;;;0.10;0.10;;;7.20;99.90;;;;;;5100656;28;20077;-77
2022/04/02 11:52:58;;;;;;;0.00;0.00;;;7.40;99.90;;;;;;5088457;28;20434;-78
2022/04/02 11:55:26;;;;;;;0.00;0.00;;;7.40;99.90;;;;;;5060570;28;20094;-79
2022/04/02 11:58:02;;;;;;;0.00;0.00;;;7.50;99.90;;;;;;5060128;28;20133;-78
2022/04/02 12:00:30;;;;;;;;;;;7.60;99.90;;;;;;5079962;28;20106;-77
2022/04/02 12:02:58;;;;;;;0.30;0.30;;;7.60;99.90;;;;;;5077816;28;20302;-79
2022/04/02 12:05:42;;;;;;;0.28;0.28;;;7.80;99.90;;;;;;5079075;28;20049;-78
2022/04/02 12:08:11;;;;;;;0.10;0.10;;;8.00;99.90;;;;;;5078926;28;20056;-76
2022/04/02 12:10:46;;;;;;;1.42;1.33;;;7.90;99.90;;;;;;5080504;28;20064;-78
2022/04/02 12:13:14;;;;;;;0.10;0.10;;;8.30;99.90;;;;;;5079623;28;20055;-78
2022/04/02 12:15:49;;;;;;;0.35;0.35;;;8.50;99.90;;;;;;5078828;28;20062;-77
2022/04/02 12:18:17;;;;;;;0.30;0.30;;;8.60;99.90;;;;;;5061419;28;20056;-79
2022/04/02 12:20:46;;;;;;;0.10;0.10;;;8.60;99.90;;;;;;5061222;28;20044;-79
2022/04/02 12:23:16;;;;;;;0.03;0.03;;;8.70;99.90;;;;;;5079183;28;20044;-79
2022/04/02 12:25:45;;;;;;;0.45;0.45;;;8.50;99.90;;;;;;5061295;28;20044;-79
2022/04/02 12:28:17;;;;;;;0.32;0.20;;;8.60;99.90;;;;;;5060764;28;20419;-78
2022/04/02 12:30:48;;;;;;;0.77;0.40;;;8.80;99.90;;;;;;5078053;28;20410;-78
2022/04/02 12:33:19;;;;;;;0.00;0.00;;;8.70;99.90;;;;;;5062446;28;20052;-77
2022/04/02 12:35:57;;;;;;;0.00;0.00;;;8.80;99.90;;;;;;5078987;28;20120;-79
2022/04/02 12:38:29;;;;;;;0.10;0.10;;;8.60;99.90;;;;;;5060389;28;20044;-80
2022/04/02 12:40:57;;;;;;;0.20;0.20;;;8.70;99.90;;;;;;5058249;28;20057;-79
2022/04/02 12:43:30;;;;;;;0.00;0.00;;;8.70;99.90;;;;;;5058815;28;20045;-80
2022/04/02 12:46:00;;;;;;;1.13;0.68;;;8.90;99.90;;;;;;5058985;28;20052;-78
2022/04/02 12:48:41;;;;;;;0.00;0.00;;;9.20;99.90;;;;;;5057414;28;20049;-79
2022/04/02 12:51:14;;;;;;;0.20;0.20;;;9.60;99.90;;;;;;5058468;28;20053;-78
2022/04/02 12:53:43;;;;;;;0.00;0.00;;;9.60;99.90;;;;;;5057336;28;20131;-80
2022/04/02 12:56:16;;;;;;;0.00;0.00;;;9.70;99.90;;;;;;5058891;28;20041;-79
2022/04/02 12:58:46;;;;;;;0.00;0.00;;;9.80;99.90;;;;;;5060481;28;20045;-80
2022/04/02 13:01:16;;;;;;;0.00;0.00;;;10.00;99.90;;;;;;5063052;28;20124;-78
2022/04/02 13:04:01;;;;;;;0.00;0.00;;;10.10;99.90;;;;;;5062186;28;20101;-80
2022/04/02 13:06:32;;;;;;;1.17;1.07;;;10.20;99.90;;;;;;5060738;28;20041;-78